createdAt,value
2019-04-21T00:01:37.684Z,46.91
2019-04-21T00:04:19.823Z,48.17
2019-04-21T00:07:02.927Z,47.47
2019-04-21T00:12:12.414Z,47.86
2019-04-21T00:14:34.985Z,47.18
2019-04-21T00:17:00.595Z,46.82
2019-04-21T00:20:06.070Z,46.68
2019-04-21T00:22:41.679Z,46.63
2019-04-21T00:25:16.338Z,46.21
2019-04-21T00:27:53.298Z,47.80
2019-04-21T00:30:32.974Z,48.47
2019-04-21T00:32:52.481Z,48.68
2019-04-21T00:35:20.606Z,49.23
2019-04-21T00:38:09.433Z,48.60
2019-04-21T00:40:47.937Z,48.50
2019-04-21T00:43:18.423Z,49.43
2019-04-21T00:45:42.259Z,49.16
2019-04-21T00:48:23.028Z,49.81
2019-04-21T00:51:12.330Z,49.51
2019-04-21T00:53:44.100Z,50.16
2019-04-21T00:56:15.275Z,50.40
2019-04-21T00:58:47.960Z,51.02
2019-04-21T01:01:16.939Z,51.40
2019-04-21T01:03:59.465Z,51.37
2019-04-21T01:06:34.124Z,52.14
2019-04-21T01:09:01.261Z,51.40
2019-04-21T01:11:31.837Z,51.26
2019-04-21T01:14:05.825Z,51.65
2019-04-21T01:16:39.278Z,52.04
2019-04-21T01:19:14.330Z,51.95
2019-04-21T01:21:24.157Z,51.75
2019-04-21T01:24:03.050Z,51.93
2019-04-21T01:26:41.668Z,51.66
2019-04-21T01:29:22.444Z,52.16
2019-04-21T01:31:57.006Z,52.06
2019-04-21T01:34:32.991Z,52.31
2019-04-21T01:36:58.475Z,52.39
2019-04-21T01:39:41.166Z,52.35
2019-04-21T01:42:11.330Z,52.38
2019-04-21T01:45:00.013Z,52.53
2019-04-21T01:47:10.270Z,52.65
2019-04-21T01:49:41.230Z,52.90
2019-04-21T01:52:34.997Z,52.67
2019-04-21T01:55:12.653Z,53.14
2019-04-21T01:58:00.474Z,53.89
2019-04-21T02:00:59.927Z,54.24
2019-04-21T02:03:52.873Z,54.33
2019-04-21T02:06:15.306Z,54.30
2019-04-21T02:08:36.077Z,55.00
2019-04-21T02:11:17.566Z,55.08
2019-04-21T02:13:59.184Z,55.08
2019-04-21T02:16:23.432Z,55.65
2019-04-21T02:18:55.579Z,55.66
2019-04-21T02:21:21.863Z,55.30
2019-04-21T02:26:45.677Z,55.80
2019-04-21T02:29:15.811Z,56.15
2019-04-21T02:31:57.510Z,56.22
2019-04-21T02:34:27.541Z,56.25
2019-04-21T02:42:15.697Z,57.22
2019-04-21T02:44:46.266Z,57.16
2019-04-21T02:47:21.635Z,56.69
2019-04-21T02:49:53.567Z,56.95
2019-04-21T02:54:53.995Z,57.09
2019-04-21T03:00:06.456Z,57.77
2019-04-21T03:02:55.058Z,57.38
2019-04-21T03:11:09.416Z,57.55
2019-04-21T03:13:42.216Z,57.61
2019-04-21T03:16:20.125Z,57.59
2019-04-21T03:18:52.461Z,57.95
2019-04-21T03:21:19.012Z,57.52
2019-04-21T03:26:28.228Z,57.99
2019-04-21T03:28:54.628Z,57.82
2019-04-21T03:39:05.397Z,58.46
2019-04-21T03:41:50.646Z,58.20
2019-04-21T03:44:16.613Z,57.63
2019-04-21T03:46:52.620Z,58.05
2019-04-21T03:49:32.583Z,58.83
2019-04-21T03:52:03.854Z,58.55
2019-04-21T03:54:26.691Z,58.94
2019-04-21T03:57:24.048Z,58.78
2019-04-21T03:59:36.173Z,58.95
2019-04-21T04:05:03.701Z,59.28
2019-04-21T04:08:28.675Z,59.05
2019-04-21T04:10:32.045Z,59.31
2019-04-21T04:13:09.583Z,58.89
2019-04-21T04:18:23.442Z,59.02
2019-04-21T04:20:51.894Z,59.09
2019-04-21T04:23:28.711Z,58.63
2019-04-21T04:28:43.821Z,59.03
2019-04-21T04:31:07.592Z,59.22
2019-04-21T04:36:10.653Z,59.15
2019-04-21T04:38:46.853Z,58.80
2019-04-21T04:41:34.953Z,58.95
2019-04-21T04:44:03.085Z,59.16
2019-04-21T04:46:55.755Z,58.60
2019-04-21T04:49:17.757Z,58.93
2019-04-21T04:51:56.267Z,58.81
2019-04-21T04:54:07.223Z,59.12
2019-04-21T04:56:47.764Z,58.91
2019-04-21T04:59:38.632Z,59.52
2019-04-21T05:02:00.315Z,58.99
2019-04-21T05:04:30.607Z,59.38
2019-04-21T05:06:59.395Z,60.16
2019-04-21T05:09:30.825Z,59.88
2019-04-21T05:14:42.746Z,59.78
2019-04-21T05:17:17.183Z,59.61
2019-04-21T05:19:53.339Z,58.83
2019-04-21T05:24:37.695Z,56.93
2019-04-21T05:27:29.465Z,56.75
2019-04-21T05:30:17.238Z,55.90
2019-04-21T05:33:09.699Z,54.97
2019-04-21T05:35:45.805Z,54.02
2019-04-21T05:38:27.511Z,53.26
2019-04-21T05:40:57.649Z,51.80
2019-04-21T05:43:35.191Z,51.13
2019-04-21T05:46:17.350Z,50.95
2019-04-21T05:48:46.978Z,51.07
2019-04-21T05:51:18.777Z,51.14
2019-04-21T05:53:59.842Z,49.13
2019-04-21T05:56:30.570Z,49.76
2019-04-21T05:59:02.400Z,47.71
2019-04-21T06:01:38.022Z,48.50
2019-04-21T06:04:17.203Z,47.76
2019-04-21T06:06:47.757Z,48.97
2019-04-21T06:09:19.019Z,46.76
2019-04-21T06:11:53.823Z,46.62
2019-04-21T06:14:31.041Z,46.81
2019-04-21T06:17:01.574Z,44.48
2019-04-21T06:19:40.769Z,45.61
2019-04-21T06:22:03.343Z,45.11
2019-04-21T06:24:52.305Z,44.08
2019-04-21T06:27:22.885Z,43.79
2019-04-21T06:29:43.718Z,43.37
2019-04-21T06:32:37.510Z,43.24
2019-04-21T06:35:12.473Z,43.08
2019-04-21T06:40:24.517Z,43.48
2019-04-21T06:42:39.162Z,43.01
2019-04-21T06:45:27.375Z,43.68
2019-04-21T06:47:57.415Z,42.72
2019-04-21T06:50:18.961Z,41.99
2019-04-21T06:52:56.222Z,42.59
2019-04-21T06:55:20.543Z,41.03
2019-04-21T06:57:56.001Z,40.35
2019-04-21T07:00:34.809Z,40.07
2019-04-21T07:03:17.016Z,39.90
2019-04-21T07:05:42.724Z,40.40
2019-04-21T07:10:45.093Z,38.17
2019-04-21T07:13:19.183Z,39.76
2019-04-21T07:15:50.139Z,39.41
2019-04-21T07:18:29.737Z,36.66
2019-04-21T07:21:02.771Z,36.15
2019-04-21T07:23:31.951Z,35.12
2019-04-21T07:26:05.809Z,38.90
2019-04-21T07:28:40.365Z,35.25
2019-04-21T07:31:15.511Z,33.40
2019-04-21T07:33:54.184Z,33.41
2019-04-21T07:36:21.878Z,32.84
2019-04-21T07:38:49.775Z,33.13
2019-04-21T07:41:16.236Z,32.34
2019-04-21T07:44:01.761Z,33.18
2019-04-21T07:46:33.028Z,32.67
2019-04-21T07:49:14.021Z,33.18
2019-04-21T07:52:05.705Z,32.16
2019-04-21T07:54:37.391Z,32.41
2019-04-21T07:56:52.379Z,33.45
2019-04-21T07:59:46.135Z,32.12
2019-04-21T08:02:10.267Z,32.43
2019-04-21T08:07:24.515Z,33.04
2019-04-21T08:09:51.421Z,32.08
2019-04-21T08:12:20.303Z,32.48
2019-04-21T08:15:05.315Z,31.96
2019-04-21T08:17:31.958Z,31.63
2019-04-21T08:20:07.450Z,30.79
2019-04-21T08:25:18.255Z,31.33
2019-04-21T08:27:55.517Z,32.23
2019-04-21T08:30:22.719Z,30.34
2019-04-21T08:33:04.374Z,30.58
2019-04-21T08:38:02.998Z,30.24
2019-04-21T08:40:49.656Z,29.46
2019-04-21T08:43:12.566Z,30.45
2019-04-21T08:45:47.019Z,29.48
2019-04-21T08:48:19.474Z,29.36
2019-04-21T08:51:02.026Z,30.02
2019-04-21T08:53:24.971Z,29.72
2019-04-21T08:56:12.401Z,29.30
2019-04-21T08:59:03.529Z,29.71
2019-04-21T09:01:38.353Z,27.73
2019-04-21T09:04:13.353Z,27.66
2019-04-21T09:09:23.646Z,28.27
2019-04-21T09:11:54.081Z,27.40
2019-04-21T09:14:24.287Z,27.59
2019-04-21T09:16:56.496Z,26.96
2019-04-21T09:19:44.375Z,26.93
2019-04-21T09:22:09.565Z,26.67
2019-04-21T09:24:41.027Z,28.39
2019-04-21T09:27:16.783Z,27.31
2019-04-21T09:29:39.355Z,27.22
2019-04-21T09:32:14.624Z,28.25
2019-04-21T09:34:43.763Z,27.59
2019-04-21T09:37:26.517Z,27.41
2019-04-21T09:39:50.779Z,26.59
2019-04-21T09:42:21.585Z,25.88
2019-04-21T09:44:58.056Z,27.72
2019-04-21T09:47:35.137Z,26.56
2019-04-21T09:50:02.757Z,26.44
2019-04-21T09:52:44.273Z,26.43
2019-04-21T09:55:13.990Z,26.94
2019-04-21T09:57:48.472Z,25.33
2019-04-21T10:00:22.401Z,27.14
2019-04-21T10:02:56.716Z,26.30
2019-04-21T10:05:22.233Z,26.30
2019-04-21T10:07:55.232Z,25.81
2019-04-21T10:10:27.506Z,26.48
2019-04-21T10:13:00.621Z,27.03
2019-04-21T10:15:33.335Z,26.50
2019-04-21T10:18:12.902Z,26.63
2019-04-21T10:20:44.876Z,26.96
2019-04-21T10:23:17.694Z,26.08
2019-04-21T10:25:50.551Z,26.17
2019-04-21T10:28:23.333Z,26.80
2019-04-21T10:30:56.532Z,26.15
2019-04-21T10:33:28.376Z,25.88
2019-04-21T10:36:01.277Z,26.00
2019-04-21T10:38:41.016Z,26.78
2019-04-21T10:41:07.753Z,27.53
2019-04-21T10:43:40.719Z,27.60
2019-04-21T10:46:12.891Z,26.74
2019-04-21T10:48:44.580Z,26.56
2019-04-21T10:51:17.177Z,27.44
2019-04-21T10:53:52.353Z,28.60
2019-04-21T10:56:30.645Z,26.95
2019-04-21T10:58:57.227Z,26.20
2019-04-21T11:01:31.483Z,26.16
2019-04-21T11:04:20.284Z,26.09
2019-04-21T11:06:48.217Z,26.75
2019-04-21T11:09:20.211Z,25.59
2019-04-21T11:11:53.499Z,26.11
2019-04-21T11:14:25.450Z,26.48
2019-04-21T11:16:58.468Z,27.27
2019-04-21T11:19:30.719Z,26.35
2019-04-21T11:22:02.988Z,27.26
2019-04-21T11:24:35.070Z,27.00
2019-04-21T11:27:08.803Z,27.07
2019-04-21T11:29:41.336Z,28.22
2019-04-21T11:32:13.214Z,27.35
2019-04-21T11:34:45.333Z,27.78
2019-04-21T11:37:19.958Z,26.08
2019-04-21T11:39:59.302Z,26.25
2019-04-21T11:42:43.934Z,25.90
2019-04-21T11:45:30.564Z,25.66
2019-04-21T11:48:12.559Z,26.54
2019-04-21T11:50:44.126Z,26.40
2019-04-21T11:53:16.851Z,25.20
2019-04-21T11:55:51.710Z,27.20
2019-04-21T11:58:21.993Z,26.22
2019-04-21T12:00:57.957Z,27.06
2019-04-21T12:03:29.625Z,26.58
2019-04-21T12:06:01.588Z,26.84
2019-04-21T12:08:40.446Z,27.95
2019-04-21T12:11:07.358Z,26.28
2019-04-21T12:13:40.250Z,25.54
2019-04-21T12:16:12.858Z,24.83
2019-04-21T12:18:45.114Z,25.06
2019-04-21T12:21:16.889Z,25.99
2019-04-21T12:23:48.481Z,25.54
2019-04-21T12:26:20.414Z,25.41
2019-04-21T12:28:53.554Z,26.37
2019-04-21T12:31:53.893Z,26.23
2019-04-21T12:34:25.942Z,26.58
2019-04-21T12:36:59.030Z,26.11
2019-04-21T12:39:30.889Z,25.33
2019-04-21T12:42:02.850Z,25.65
2019-04-21T12:44:34.492Z,25.56
2019-04-21T12:47:06.081Z,24.66
2019-04-21T12:49:38.100Z,25.46
2019-04-21T12:52:09.877Z,25.41
2019-04-21T12:54:41.814Z,25.14
2019-04-21T12:57:14.574Z,25.27
2019-04-21T12:59:46.707Z,25.80
2019-04-21T13:02:18.410Z,26.07
2019-04-21T13:04:52.188Z,26.86
2019-04-21T13:07:23.612Z,28.35
2019-04-21T13:09:55.321Z,27.16
2019-04-21T13:12:27.032Z,24.77
2019-04-21T13:14:59.558Z,25.35
2019-04-21T13:17:35.356Z,25.27
2019-04-21T13:20:07.966Z,24.99
2019-04-21T13:22:39.811Z,26.30
2019-04-21T13:25:13.955Z,25.57
2019-04-21T13:27:47.252Z,25.94
2019-04-21T13:30:22.246Z,25.30
2019-04-21T13:32:55.225Z,24.60
2019-04-21T13:35:28.893Z,24.34
2019-04-21T13:38:00.720Z,25.93
2019-04-21T13:41:05.288Z,24.98
2019-04-21T13:43:25.215Z,25.38
2019-04-21T13:45:57.480Z,25.39
2019-04-21T13:48:30.695Z,24.35
2019-04-21T13:51:02.412Z,25.85
2019-04-21T13:53:34.930Z,24.64
2019-04-21T13:56:08.922Z,25.04
2019-04-21T13:58:42.176Z,26.48
2019-04-21T14:01:13.964Z,26.11
2019-04-21T14:03:45.572Z,25.61
2019-04-21T14:06:18.458Z,25.70
2019-04-21T14:08:56.895Z,26.38
2019-04-21T14:11:29.261Z,26.01
2019-04-21T14:14:02.661Z,25.71
2019-04-21T14:16:34.385Z,26.48
2019-04-21T14:19:07.481Z,25.15
2019-04-21T14:21:39.361Z,25.92
2019-04-21T14:24:10.979Z,25.34
2019-04-21T14:26:42.572Z,25.58
2019-04-21T14:29:15.478Z,25.11
2019-04-21T14:31:48.456Z,25.60
2019-04-21T14:34:20.136Z,25.71
2019-04-21T14:36:52.953Z,26.29
2019-04-21T14:39:26.261Z,25.37
2019-04-21T14:41:58.197Z,25.96
2019-04-21T14:44:31.084Z,25.36
2019-04-21T14:47:09.366Z,26.12
2019-04-21T14:50:03.115Z,25.95
2019-04-21T14:52:37.361Z,26.23
2019-04-21T14:55:22.798Z,24.87
2019-04-21T14:57:54.924Z,26.36
2019-04-21T15:00:33.375Z,25.24
2019-04-21T15:03:05.599Z,25.30
2019-04-21T15:05:37.627Z,24.61
2019-04-21T15:08:09.287Z,23.91
2019-04-21T15:10:40.983Z,24.54
2019-04-21T15:13:13.952Z,24.70
2019-04-21T15:15:45.788Z,24.93
2019-04-21T15:18:18.560Z,25.47
2019-04-21T15:20:50.698Z,25.34
2019-04-21T15:23:25.223Z,25.22
2019-04-21T15:25:56.463Z,25.04
2019-04-21T15:28:31.637Z,25.33
2019-04-21T15:31:02.880Z,24.57
2019-04-21T15:33:34.966Z,25.92
2019-04-21T15:36:07.106Z,25.70
2019-04-21T15:38:40.152Z,24.51
2019-04-21T15:41:12.660Z,25.55
2019-04-21T15:43:46.685Z,24.53
2019-04-21T15:46:18.552Z,25.21
2019-04-21T15:48:51.018Z,26.40
2019-04-21T15:51:23.955Z,25.35
2019-04-21T15:53:57.591Z,25.25
2019-04-21T15:56:57.085Z,25.92
2019-04-21T15:59:37.865Z,26.26
2019-04-21T16:02:26.924Z,24.67
2019-04-21T16:04:58.995Z,24.62
2019-04-21T16:07:31.669Z,25.91
2019-04-21T16:10:06.282Z,25.73
2019-04-21T16:12:37.916Z,25.21
2019-04-21T16:15:10.688Z,24.65
2019-04-21T16:17:43.473Z,24.62
2019-04-21T16:20:15.586Z,23.81
2019-04-21T16:22:48.511Z,24.28
2019-04-21T16:25:21.028Z,24.87
2019-04-21T16:27:53.259Z,25.20
2019-04-21T16:30:25.877Z,24.81
2019-04-21T16:32:57.586Z,25.26
2019-04-21T16:35:29.584Z,24.47
2019-04-21T16:38:02.557Z,24.52
2019-04-21T16:40:43.282Z,24.96
2019-04-21T16:43:08.132Z,24.82
2019-04-21T16:45:41.023Z,24.64
2019-04-21T16:48:13.027Z,24.25
2019-04-21T16:50:45.780Z,24.05
2019-04-21T16:53:23.909Z,24.79
2019-04-21T16:56:02.760Z,25.29
2019-04-21T16:58:56.773Z,24.82
2019-04-21T17:01:31.571Z,24.21
2019-04-21T17:04:04.593Z,24.16
2019-04-21T17:06:38.246Z,23.54
2019-04-21T17:09:10.615Z,23.67
2019-04-21T17:11:46.148Z,24.03
2019-04-21T17:14:31.194Z,24.87
2019-04-21T17:17:16.267Z,25.29
2019-04-21T17:19:29.187Z,24.66
2019-04-21T17:21:55.750Z,25.44
2019-04-21T17:24:28.592Z,26.00
2019-04-21T17:27:00.407Z,25.67
2019-04-21T17:29:32.539Z,25.76
2019-04-21T17:32:07.858Z,25.63
2019-04-21T17:34:39.162Z,25.99
2019-04-21T17:37:11.267Z,25.68
2019-04-21T17:39:43.062Z,26.15
2019-04-21T17:42:27.533Z,26.36
2019-04-21T17:44:48.019Z,26.93
2019-04-21T17:47:34.175Z,27.64
2019-04-21T17:50:14.029Z,27.55
2019-04-21T17:52:56.380Z,27.62
2019-04-21T17:55:31.557Z,27.52
2019-04-21T17:58:14.989Z,27.61
2019-04-21T18:01:21.681Z,27.94
2019-04-21T18:03:40.376Z,27.80
2019-04-21T18:06:01.658Z,28.35
2019-04-21T18:08:43.023Z,28.38
2019-04-21T18:11:03.615Z,28.52
2019-04-21T18:13:26.852Z,28.80
2019-04-21T18:16:12.384Z,29.52
2019-04-21T18:18:32.956Z,29.67
2019-04-21T18:21:12.435Z,29.96
2019-04-21T18:23:58.540Z,30.26
2019-04-21T18:26:29.131Z,29.95
2019-04-21T18:28:57.194Z,30.33
2019-04-21T18:31:36.442Z,30.36
2019-04-21T18:34:34.220Z,30.50
2019-04-21T18:37:14.707Z,30.53
2019-04-21T18:40:01.588Z,30.72
2019-04-21T18:42:49.244Z,31.16
2019-04-21T18:48:29.354Z,31.44
2019-04-21T18:51:19.095Z,31.25
2019-04-21T18:54:25.165Z,31.09
2019-04-21T18:56:51.565Z,31.28
2019-04-21T18:59:14.153Z,31.18
2019-04-21T19:01:52.011Z,31.51
2019-04-21T19:04:22.529Z,31.51
2019-04-21T19:07:10.799Z,31.58
2019-04-21T19:10:03.618Z,31.43
2019-04-21T19:12:25.326Z,31.38
2019-04-21T19:14:52.122Z,31.55
2019-04-21T19:20:00.858Z,31.50
2019-04-21T19:22:33.196Z,31.40
2019-04-21T19:25:08.538Z,31.39
2019-04-21T19:27:38.041Z,31.48
2019-04-21T19:32:39.053Z,31.58
2019-04-21T19:35:02.008Z,31.88
2019-04-21T19:37:40.163Z,32.05
2019-04-21T19:40:29.036Z,31.86
2019-04-21T19:42:53.311Z,32.03
2019-04-21T19:45:33.216Z,31.95
2019-04-21T19:48:09.334Z,31.97
2019-04-21T19:50:41.226Z,32.10
2019-04-21T19:53:05.350Z,32.29
2019-04-21T19:55:29.769Z,32.51
2019-04-21T19:58:01.479Z,32.52
2019-04-21T20:00:33.144Z,32.69
2019-04-21T20:03:06.129Z,32.93
2019-04-21T20:05:44.997Z,33.04
2019-04-21T20:08:23.763Z,33.29
2019-04-21T20:11:08.519Z,33.22
2019-04-21T20:13:48.773Z,33.35
2019-04-21T20:16:12.978Z,33.35
2019-04-21T20:18:32.841Z,33.38
2019-04-21T20:20:58.327Z,33.54
2019-04-21T20:23:32.730Z,33.66
2019-04-21T20:26:06.420Z,33.70
2019-04-21T20:28:48.917Z,33.74
2019-04-21T20:31:29.345Z,33.85
2019-04-21T20:34:07.875Z,33.90
2019-04-21T20:36:42.848Z,33.84
2019-04-21T20:38:57.919Z,33.89
2019-04-21T20:41:36.714Z,34.08
2019-04-21T20:44:21.155Z,34.89
2019-04-21T20:46:45.038Z,36.03
2019-04-21T20:49:20.321Z,36.92
2019-04-21T20:52:01.731Z,37.48
2019-04-21T20:54:30.301Z,37.94
2019-04-21T20:57:03.172Z,38.69
2019-04-21T20:59:32.718Z,38.82
2019-04-21T21:02:05.494Z,39.40
2019-04-21T21:04:32.696Z,39.99
2019-04-21T21:07:30.641Z,40.22
2019-04-21T21:09:55.534Z,40.30
2019-04-21T21:12:27.633Z,40.49
2019-04-21T21:14:50.296Z,40.68
2019-04-21T21:17:39.305Z,40.78
2019-04-21T21:20:07.614Z,41.13
2019-04-21T21:22:33.128Z,41.47
2019-04-21T21:25:11.543Z,41.66
2019-04-21T21:27:39.626Z,42.00
2019-04-21T21:30:16.117Z,42.63
2019-04-21T21:32:52.458Z,42.94
2019-04-21T21:35:24.277Z,43.53
2019-04-21T21:37:59.685Z,43.92
2019-04-21T21:40:34.875Z,44.13
2019-04-21T21:42:48.127Z,44.24
2019-04-21T21:45:25.140Z,45.37
2019-04-21T21:48:11.503Z,44.77
2019-04-21T21:50:42.143Z,45.14
2019-04-21T21:53:08.591Z,45.61
2019-04-21T21:55:35.828Z,45.39
2019-04-21T21:58:08.477Z,45.82
2019-04-21T22:00:48.218Z,45.72
2019-04-21T22:03:26.630Z,46.04
2019-04-21T22:05:59.694Z,46.75
2019-04-21T22:08:22.638Z,46.81
2019-04-21T22:10:54.993Z,46.60
2019-04-21T22:13:36.295Z,46.90
2019-04-21T22:16:06.956Z,46.71
2019-04-21T22:18:56.286Z,46.95
2019-04-21T22:21:18.770Z,47.21
2019-04-21T22:23:51.624Z,47.53
2019-04-21T22:26:13.901Z,46.96
2019-04-21T22:28:47.586Z,47.06
2019-04-21T22:31:23.574Z,48.09
2019-04-21T22:33:56.382Z,47.96
2019-04-21T22:36:35.325Z,48.00
2019-04-21T22:39:15.730Z,47.82
2019-04-21T22:41:41.078Z,48.47
2019-04-21T22:44:10.137Z,48.22
2019-04-21T22:46:54.812Z,48.61
2019-04-21T22:49:16.957Z,48.96
2019-04-21T22:51:51.744Z,49.31
2019-04-21T22:54:29.623Z,49.14
2019-04-21T22:57:01.640Z,49.08
2019-04-21T22:59:30.099Z,49.36
2019-04-21T23:02:06.391Z,49.51
2019-04-21T23:04:41.710Z,49.70
2019-04-21T23:07:13.570Z,49.90
2019-04-21T23:09:42.953Z,49.82
2019-04-21T23:12:22.884Z,50.03
2019-04-21T23:14:57.653Z,49.98
2019-04-21T23:17:38.468Z,50.76
2019-04-21T23:20:19.509Z,50.43
2019-04-21T23:22:58.446Z,50.57
2019-04-21T23:25:25.113Z,50.76
2019-04-21T23:27:59.071Z,51.20
2019-04-21T23:30:32.336Z,50.74
2019-04-21T23:32:51.276Z,50.33
2019-04-21T23:35:22.731Z,50.46
2019-04-21T23:37:57.721Z,50.10
2019-04-21T23:40:27.363Z,50.26
2019-04-21T23:43:00.082Z,49.81
2019-04-21T23:45:36.193Z,50.43
2019-04-21T23:48:18.548Z,50.24
2019-04-21T23:50:49.106Z,49.32
2019-04-21T23:53:13.132Z,49.65
2019-04-21T23:55:45.335Z,49.47
2019-04-21T23:58:22.241Z,48.79
